Time;durP1;ratioP1;P1;durP2;ratioP2;P2;SDS_P1;SDS_P2;PMS_P1;PMS_P2;Temp;Humidity;BMP_temperature;BMP_pressure;BME280_temperature;BME280_humidity;BME280_pressure;Samples;Min_cycle;Max_cycle;Signal;HPM_P1;HPM_P2
2023/10/01 00:01:03;;;;;;;15.07;9.80;;;;;;;;;;5019489;28;20411;-58
2023/10/01 00:03:28;;;;;;;13.50;8.80;;;;;;;;;;5017179;28;20395;-58
2023/10/01 00:05:53;;;;;;;13.13;9.20;;;;;;;;;;5024292;28;20414;-58
2023/10/01 00:08:19;;;;;;;11.43;7.80;;;;;;;;;;5018600;28;20914;-58
2023/10/01 00:10:45;;;;;;;11.80;7.97;;;;;;;;;;5017811;28;20489;-58
2023/10/01 00:13:11;;;;;;;10.32;7.70;;;;;;;;;;5023673;28;20424;-57
2023/10/01 00:15:37;;;;;;;12.07;8.00;;;;;;;;;;5018268;28;20844;-58
2023/10/01 00:18:05;;;;;;;11.75;7.53;;;;;;;;;;5017554;28;20437;-58
2023/10/01 00:20:33;;;;;;;11.77;7.88;;;;;;;;;;5016657;28;20411;-58
2023/10/01 00:23:02;;;;;;;11.38;7.35;;;;;;;;;;5024995;28;21160;-58
2023/10/01 00:25:27;;;;;;;10.75;7.47;;;;;;;;;;5016876;28;20426;-58
2023/10/01 00:27:53;;;;;;;11.70;7.23;;;;;;;;;;5017336;28;20909;-58
2023/10/01 00:30:18;;;;;;;12.07;7.80;;;;;;;;;;5030954;28;20412;-58
2023/10/01 00:32:43;;;;;;;11.93;7.20;;;;;;;;;;5021661;28;20501;-58
2023/10/01 00:35:11;;;;;;;12.00;7.50;;;;;;;;;;5020838;28;20422;-58
2023/10/01 00:37:36;;;;;;;11.15;7.32;;;;;;;;;;5016041;28;20806;-58
2023/10/01 00:40:05;;;;;;;11.05;7.57;;;;;;;;;;5023765;28;20479;-59
2023/10/01 00:42:32;;;;;;;11.00;7.80;;;;;;;;;;5019332;28;20403;-57
2023/10/01 00:44:57;;;;;;;12.02;7.85;;;;;;;;;;5024353;28;20906;-57
2023/10/01 00:47:23;;;;;;;11.57;7.83;;;;;;;;;;5023688;28;20472;-58
2023/10/01 00:49:48;;;;;;;11.88;8.18;;;;;;;;;;5021085;28;20398;-58
2023/10/01 00:52:14;;;;;;;14.43;9.10;;;;;;;;;;5019884;28;20439;-58
2023/10/01 00:54:39;;;;;;;15.50;9.37;;;;;;;;;;5015662;28;20495;-58
2023/10/01 00:57:04;;;;;;;12.90;9.30;;;;;;;;;;5022751;28;20418;-58
2023/10/01 00:59:32;;;;;;;13.43;9.20;;;;;;;;;;5020178;28;20767;-58
2023/10/01 01:01:58;;;;;;;14.35;9.85;;;;;;;;;;5023073;28;20417;-58
2023/10/01 01:04:23;;;;;;;12.00;9.10;;;;;;;;;;5015584;28;20392;-58
2023/10/01 01:06:49;;;;;;;15.07;10.40;;;;;;;;;;5019225;28;20403;-58
2023/10/01 01:09:15;;;;;;;15.90;10.10;;;;;;;;;;5020599;28;20919;-58
2023/10/01 01:11:40;;;;;;;14.18;10.00;;;;;;;;;;5016051;28;20412;-58
2023/10/01 01:14:07;;;;;;;14.37;9.33;;;;;;;;;;5026255;28;20510;-58
2023/10/01 01:16:33;;;;;;;12.27;8.93;;;;;;;;;;5024251;28;20419;-58
2023/10/01 01:19:00;;;;;;;12.27;7.93;;;;;;;;;;5022395;28;20415;-58
2023/10/01 01:21:25;;;;;;;12.73;8.50;;;;;;;;;;5022531;28;20438;-58
2023/10/01 01:23:51;;;;;;;13.47;8.30;;;;;;;;;;5018323;28;20442;-58
2023/10/01 01:26:21;;;;;;;10.70;8.00;;;;;;;;;;5015156;28;20410;-58
2023/10/01 01:28:46;;;;;;;11.38;7.60;;;;;;;;;;5022958;28;20408;-58
2023/10/01 01:31:11;;;;;;;12.10;8.57;;;;;;;;;;5013525;28;20745;-58
2023/10/01 01:33:52;;;;;;;13.30;8.80;;;;;;;;;;5012421;28;20403;-58
2023/10/01 01:36:19;;;;;;;13.50;9.13;;;;;;;;;;5020512;28;20453;-58
2023/10/01 01:39:10;;;;;;;12.52;8.10;;;;;;;;;;5021238;28;20428;-58
2023/10/01 01:41:42;;;;;;;12.35;8.52;;;;;;;;;;5013742;28;20486;-58
2023/10/01 01:44:07;;;;;;;11.05;8.35;;;;;;;;;;5022421;28;20957;-58
2023/10/01 01:46:33;;;;;;;13.57;9.10;;;;;;;;;;5017532;28;20396;-57
2023/10/01 01:48:58;;;;;;;11.77;8.80;;;;;;;;;;5021079;28;20400;-58
2023/10/01 01:51:28;;;;;;;11.90;8.70;;;;;;;;;;5013495;28;20718;-58
2023/10/01 01:53:56;;;;;;;13.90;8.48;;;;;;;;;;5022116;28;20434;-58
2023/10/01 01:56:21;;;;;;;14.15;8.68;;;;;;;;;;5017999;28;20494;-58
2023/10/01 01:58:47;;;;;;;12.67;8.30;;;;;;;;;;5014439;28;20836;-57
2023/10/01 02:03:38;;;;;;;12.03;8.37;;;;;;;;;;5016305;28;20457;-58
2023/10/01 02:06:06;;;;;;;12.90;9.38;;;;;;;;;;5015475;28;20395;-58
2023/10/01 02:08:35;;;;;;;12.57;8.90;;;;;;;;;;5023112;28;20413;-58
2023/10/01 02:11:04;;;;;;;12.73;9.13;;;;;;;;;;5020432;28;20398;-58
2023/10/01 02:13:29;;;;;;;12.40;8.52;;;;;;;;;;5018911;28;20448;-58
2023/10/01 02:15:55;;;;;;;12.73;8.77;;;;;;;;;;5015657;28;20429;-58
2023/10/01 02:18:20;;;;;;;12.30;8.70;;;;;;;;;;5021778;28;20398;-58
2023/10/01 02:20:51;;;;;;;13.13;8.57;;;;;;;;;;5017398;28;20400;-58
2023/10/01 02:23:25;;;;;;;12.02;8.68;;;;;;;;;;5014527;28;20419;-58
2023/10/01 02:25:51;;;;;;;13.02;9.07;;;;;;;;;;5014161;28;20415;-57
2023/10/01 02:28:16;;;;;;;13.05;8.50;;;;;;;;;;5015305;28;20421;-58
2023/10/01 02:30:42;;;;;;;12.23;8.63;;;;;;;;;;5017438;28;20465;-58
2023/10/01 02:33:18;;;;;;;15.37;9.33;;;;;;;;;;5013454;28;20415;-58
2023/10/01 02:35:46;;;;;;;12.23;8.80;;;;;;;;;;5014806;28;20413;-58
2023/10/01 02:40:57;;;;;;;13.75;9.25;;;;;;;;;;5018871;28;20786;-57
2023/10/01 02:43:24;;;;;;;14.30;9.73;;;;;;;;;;5014408;28;20400;-58
2023/10/01 02:45:50;;;;;;;14.57;9.20;;;;;;;;;;5022423;28;20407;-58
2023/10/01 02:48:17;;;;;;;14.63;9.77;;;;;;;;;;5017379;28;20881;-58
2023/10/01 02:50:45;;;;;;;14.18;9.65;;;;;;;;;;5014336;28;20414;-58
2023/10/01 02:53:11;;;;;;;13.68;9.55;;;;;;;;;;5013323;28;20418;-58
2023/10/01 02:55:44;;;;;;;13.13;9.18;;;;;;;;;;5019769;28;20770;-58
2023/10/01 02:58:17;;;;;;;11.90;8.93;;;;;;;;;;5019146;28;20501;-58
2023/10/01 03:00:43;;;;;;;13.40;8.85;;;;;;;;;;5014012;28;20532;-58
2023/10/01 03:03:14;;;;;;;14.10;9.57;;;;;;;;;;5016570;28;20492;-59
2023/10/01 03:05:42;;;;;;;13.43;9.02;;;;;;;;;;5020628;28;20447;-57
2023/10/01 03:08:11;;;;;;;12.23;8.87;;;;;;;;;;5017533;28;20474;-57
2023/10/01 03:10:38;;;;;;;12.77;8.67;;;;;;;;;;5026315;28;20424;-58
2023/10/01 03:13:14;;;;;;;13.70;9.02;;;;;;;;;;5023739;28;20427;-58
2023/10/01 03:15:41;;;;;;;12.88;8.98;;;;;;;;;;5019647;28;20435;-58
2023/10/01 03:18:34;;;;;;;12.57;9.13;;;;;;;;;;5018145;28;20426;-58
2023/10/01 03:26:05;;;;;;;11.18;7.95;;;;;;;;;;5021395;28;21303;-58
2023/10/01 03:28:35;;;;;;;13.68;8.00;;;;;;;;;;5017126;28;20399;-58
2023/10/01 03:31:06;;;;;;;12.57;7.97;;;;;;;;;;5026372;28;20399;-58
2023/10/01 03:33:33;;;;;;;10.90;7.55;;;;;;;;;;5022153;28;20569;-58
2023/10/01 03:35:58;;;;;;;10.45;7.10;;;;;;;;;;5022431;28;20966;-58
2023/10/01 03:38:24;;;;;;;13.53;7.93;;;;;;;;;;5017410;28;20434;-58
2023/10/01 03:41:06;;;;;;;11.15;7.05;;;;;;;;;;5024546;28;20407;-58
2023/10/01 03:43:34;;;;;;;11.68;6.88;;;;;;;;;;5019624;28;20453;-58
2023/10/01 03:46:07;;;;;;;11.95;6.70;;;;;;;;;;5025014;28;20434;-58
2023/10/01 03:51:17;;;;;;;10.57;6.07;;;;;;;;;;5024326;28;20417;-58
2023/10/01 03:53:43;;;;;;;10.50;6.37;;;;;;;;;;5020476;28;21024;-57
2023/10/01 03:56:08;;;;;;;10.10;5.78;;;;;;;;;;5016181;28;20938;-57
2023/10/01 03:58:36;;;;;;;10.63;6.20;;;;;;;;;;5025778;28;20414;-58
2023/10/01 04:01:26;;;;;;;10.70;6.15;;;;;;;;;;5018766;28;20408;-58
2023/10/01 04:03:47;;;;;;;9.70;5.40;;;;;;;;;;5017494;28;20891;-58
2023/10/01 04:06:12;;;;;;;11.73;5.50;;;;;;;;;;5016550;28;20418;-58
2023/10/01 04:08:39;;;;;;;11.13;5.50;;;;;;;;;;5025008;28;20411;-58
2023/10/01 04:11:05;;;;;;;10.30;5.65;;;;;;;;;;5018744;28;20403;-58
2023/10/01 04:13:32;;;;;;;10.70;5.80;;;;;;;;;;5024553;28;20410;-58
2023/10/01 04:16:07;;;;;;;10.55;5.70;;;;;;;;;;5016932;28;20578;-58
2023/10/01 04:18:34;;;;;;;10.95;5.57;;;;;;;;;;5017075;28;20815;-57
2023/10/01 04:23:32;;;;;;;10.13;5.40;;;;;;;;;;5024600;28;20746;-58
2023/10/01 04:26:00;;;;;;;10.13;5.40;;;;;;;;;;5024131;28;20431;-58
2023/10/01 04:28:27;;;;;;;9.32;5.20;;;;;;;;;;5018879;28;20490;-58
2023/10/01 04:30:52;;;;;;;9.88;5.05;;;;;;;;;;5024100;28;20893;-57
2023/10/01 04:33:18;;;;;;;10.00;5.13;;;;;;;;;;5023515;28;20415;-58
2023/10/01 04:35:51;;;;;;;9.63;4.80;;;;;;;;;;5017852;28;20845;-58
2023/10/01 04:38:18;;;;;;;9.80;5.32;;;;;;;;;;5016943;28;20744;-58
2023/10/01 04:40:46;;;;;;;11.95;5.00;;;;;;;;;;5024488;28;20399;-57
2023/10/01 04:43:11;;;;;;;11.27;5.30;;;;;;;;;;5017637;28;20432;-58
2023/10/01 04:45:37;;;;;;;10.60;5.10;;;;;;;;;;5018687;28;20849;-58
2023/10/01 04:48:10;;;;;;;9.43;4.97;;;;;;;;;;5023871;28;20410;-58
2023/10/01 04:50:37;;;;;;;9.75;4.78;;;;;;;;;;5016218;28;20878;-58
2023/10/01 04:53:07;;;;;;;11.25;5.50;;;;;;;;;;5016170;28;20471;-58
2023/10/01 04:55:40;;;;;;;9.80;4.85;;;;;;;;;;5017976;28;20465;-58
2023/10/01 04:58:06;;;;;;;10.05;4.90;;;;;;;;;;5015667;28;20479;-57
2023/10/01 05:00:33;;;;;;;10.63;5.00;;;;;;;;;;5015460;28;20467;-58
2023/10/01 05:02:59;;;;;;;10.30;4.68;;;;;;;;;;5018084;28;20406;-58
2023/10/01 05:05:25;;;;;;;10.48;4.78;;;;;;;;;;5016048;28;20536;-58
2023/10/01 05:07:55;;;;;;;9.85;4.90;;;;;;;;;;5015357;28;20455;-58
2023/10/01 05:10:21;;;;;;;10.40;4.93;;;;;;;;;;5021944;28;20794;-58
2023/10/01 05:12:46;;;;;;;10.87;4.97;;;;;;;;;;5018775;28;20486;-58
2023/10/01 05:15:17;;;;;;;9.33;4.80;;;;;;;;;;5026279;28;20431;-58
2023/10/01 05:17:43;;;;;;;11.65;5.47;;;;;;;;;;5024043;28;20399;-58
2023/10/01 05:20:09;;;;;;;10.75;4.97;;;;;;;;;;5017930;28;20437;-58
2023/10/01 05:22:46;;;;;;;11.52;5.13;;;;;;;;;;5015166;28;20892;-58
2023/10/01 05:25:12;;;;;;;10.57;5.10;;;;;;;;;;5014269;28;20418;-58
2023/10/01 05:27:40;;;;;;;9.90;5.00;;;;;;;;;;5021642;28;20402;-58
2023/10/01 05:30:32;;;;;;;10.88;5.03;;;;;;;;;;5019291;28;20897;-58
2023/10/01 05:32:52;;;;;;;11.80;5.43;;;;;;;;;;5022278;28;20484;-58
2023/10/01 05:35:17;;;;;;;11.30;5.23;;;;;;;;;;5014153;28;20407;-58
2023/10/01 05:37:45;;;;;;;11.67;5.33;;;;;;;;;;5020301;28;20407;-58
2023/10/01 05:40:15;;;;;;;11.38;5.15;;;;;;;;;;5020805;28;20822;-59
2023/10/01 05:42:40;;;;;;;10.68;5.25;;;;;;;;;;5014599;28;20469;-58
2023/10/01 05:45:14;;;;;;;10.43;5.17;;;;;;;;;;5023062;28;20415;-58
2023/10/01 05:47:54;;;;;;;10.93;5.30;;;;;;;;;;5018416;28;20407;-58
2023/10/01 05:50:22;;;;;;;11.10;5.30;;;;;;;;;;5020770;28;20407;-58
2023/10/01 05:52:47;;;;;;;9.25;4.90;;;;;;;;;;5015207;28;20419;-58
2023/10/01 05:55:12;;;;;;;11.20;5.20;;;;;;;;;;5021012;28;20727;-58
2023/10/01 05:57:38;;;;;;;10.43;5.23;;;;;;;;;;5018765;28;20476;-58
2023/10/01 06:00:07;;;;;;;10.00;5.10;;;;;;;;;;5014924;28;20438;-58
2023/10/01 06:02:42;;;;;;;12.40;5.57;;;;;;;;;;5014877;28;20408;-58
2023/10/01 06:05:25;;;;;;;10.13;5.20;;;;;;;;;;5018678;28;20857;-58
2023/10/01 06:07:53;;;;;;;11.52;5.43;;;;;;;;;;5020546;28;20425;-58
2023/10/01 06:10:23;;;;;;;10.88;6.00;;;;;;;;;;5013483;28;20410;-58
2023/10/01 06:12:56;;;;;;;10.45;5.43;;;;;;;;;;5015024;28;20416;-58
2023/10/01 06:15:25;;;;;;;10.52;6.03;;;;;;;;;;5019285;28;20846;-58
2023/10/01 06:17:50;;;;;;;11.68;5.90;;;;;;;;;;5021351;28;20482;-58
2023/10/01 06:20:23;;;;;;;11.43;5.67;;;;;;;;;;5014481;28;21226;-58
2023/10/01 06:22:49;;;;;;;11.88;5.68;;;;;;;;;;5015586;28;20416;-58
2023/10/01 06:25:15;;;;;;;9.82;5.63;;;;;;;;;;5015381;28;20403;-58
2023/10/01 06:27:40;;;;;;;11.15;6.10;;;;;;;;;;5015099;28;20448;-58
2023/10/01 06:30:07;;;;;;;12.77;5.77;;;;;;;;;;5023497;28;20959;-59
2023/10/01 06:32:33;;;;;;;11.47;5.70;;;;;;;;;;5016890;28;20407;-58
2023/10/01 06:35:02;;;;;;;10.40;5.47;;;;;;;;;;5014878;28;20404;-58
2023/10/01 06:37:45;;;;;;;12.73;5.80;;;;;;;;;;5017729;28;20395;-58
2023/10/01 06:40:29;;;;;;;12.10;5.90;;;;;;;;;;5024848;28;20490;-58
2023/10/01 06:42:54;;;;;;;12.73;6.03;;;;;;;;;;5021688;28;20956;-58
2023/10/01 06:45:38;;;;;;;11.80;6.10;;;;;;;;;;5025213;28;20389;-58
2023/10/01 06:48:08;;;;;;;11.63;5.72;;;;;;;;;;5024036;28;20462;-58
2023/10/01 06:50:35;;;;;;;10.15;5.72;;;;;;;;;;5019437;28;20455;-58
2023/10/01 06:53:00;;;;;;;11.43;5.93;;;;;;;;;;5020079;28;20602;-58
2023/10/01 06:55:26;;;;;;;10.70;5.78;;;;;;;;;;5026058;28;20426;-58
2023/10/01 06:57:53;;;;;;;11.33;6.17;;;;;;;;;;5018571;28;20407;-58
2023/10/01 07:00:22;;;;;;;11.60;5.85;;;;;;;;;;5020864;28;20431;-57
2023/10/01 07:02:49;;;;;;;10.95;5.97;;;;;;;;;;5024950;28;20415;-58
2023/10/01 07:05:20;;;;;;;11.85;5.97;;;;;;;;;;5016412;28;20757;-58
2023/10/01 07:07:45;;;;;;;11.35;5.78;;;;;;;;;;5018150;28;20404;-58
2023/10/01 07:10:11;;;;;;;11.93;6.30;;;;;;;;;;5019494;28;20485;-58
2023/10/01 07:12:38;;;;;;;14.13;6.20;;;;;;;;;;5026484;28;20772;-58
2023/10/01 07:15:03;;;;;;;11.35;5.85;;;;;;;;;;5025395;28;20394;-58
2023/10/01 07:17:31;;;;;;;12.50;5.97;;;;;;;;;;5020661;28;20403;-58
2023/10/01 07:20:18;;;;;;;10.47;6.03;;;;;;;;;;5013616;28;20500;-58
2023/10/01 07:22:44;;;;;;;13.18;6.28;;;;;;;;;;5018194;28;20401;-58
2023/10/01 07:25:28;;;;;;;12.35;6.13;;;;;;;;;;5026955;28;20466;-58
2023/10/01 07:27:55;;;;;;;12.25;6.00;;;;;;;;;;5023808;28;20434;-58
2023/10/01 07:30:39;;;;;;;11.15;6.32;;;;;;;;;;5021646;28;20393;-58
2023/10/01 07:33:04;;;;;;;11.73;5.78;;;;;;;;;;5025568;28;20403;-58
2023/10/01 07:35:29;;;;;;;11.33;6.20;;;;;;;;;;5017356;28;20405;-58
2023/10/01 07:37:54;;;;;;;13.13;6.47;;;;;;;;;;5022381;28;20907;-58
2023/10/01 07:40:23;;;;;;;11.83;5.90;;;;;;;;;;5023155;28;20480;-58
2023/10/01 07:42:49;;;;;;;11.75;5.95;;;;;;;;;;5025055;28;20407;-58
2023/10/01 07:45:16;;;;;;;11.25;5.90;;;;;;;;;;5024253;28;20486;-58
2023/10/01 07:47:42;;;;;;;11.30;6.00;;;;;;;;;;5020725;28;20407;-59
2023/10/01 07:50:12;;;;;;;10.50;5.77;;;;;;;;;;5016474;28;20415;-58
2023/10/01 07:52:40;;;;;;;12.90;6.22;;;;;;;;;;5025444;28;20422;-58
2023/10/01 07:55:29;;;;;;;12.75;6.40;;;;;;;;;;5018938;28;20477;-58
2023/10/01 07:57:51;;;;;;;12.20;6.10;;;;;;;;;;5019010;28;20415;-58
2023/10/01 08:00:26;;;;;;;10.83;5.60;;;;;;;;;;5025024;28;20449;-58
2023/10/01 08:03:32;;;;;;;12.68;6.30;;;;;;;;;;5024534;28;20817;-58
2023/10/01 08:05:48;;;;;;;12.35;6.25;;;;;;;;;;5018002;28;20823;-59
2023/10/01 08:08:14;;;;;;;11.68;6.00;;;;;;;;;;5018635;28;20495;-59
2023/10/01 08:10:40;;;;;;;12.30;6.03;;;;;;;;;;5024393;28;20490;-59
2023/10/01 08:13:06;;;;;;;13.33;6.57;;;;;;;;;;5016262;28;21016;-59
2023/10/01 08:15:38;;;;;;;11.70;6.15;;;;;;;;;;5019944;28;20410;-58
2023/10/01 08:20:58;;;;;;;11.73;6.35;;;;;;;;;;5023859;28;20761;-58
2023/10/01 08:23:25;;;;;;;13.00;6.45;;;;;;;;;;5015502;28;20398;-58
2023/10/01 08:25:51;;;;;;;11.75;6.47;;;;;;;;;;5019794;28;20970;-59
2023/10/01 08:30:43;;;;;;;13.07;6.90;;;;;;;;;;5024701;28;20491;-58
2023/10/01 08:33:19;;;;;;;13.45;7.13;;;;;;;;;;5017983;28;20409;-59
2023/10/01 08:35:56;;;;;;;14.50;7.10;;;;;;;;;;5018329;28;20481;-59
2023/10/01 08:38:22;;;;;;;12.52;7.13;;;;;;;;;;5015170;28;20670;-58
2023/10/01 08:40:49;;;;;;;13.05;6.93;;;;;;;;;;5024479;28;20774;-58
2023/10/01 08:43:16;;;;;;;13.77;7.22;;;;;;;;;;5018477;28;20856;-58
2023/10/01 08:45:43;;;;;;;13.60;7.50;;;;;;;;;;5015026;28;20490;-59
2023/10/01 08:48:08;;;;;;;14.63;7.73;;;;;;;;;;5024198;28;20536;-59
2023/10/01 08:50:36;;;;;;;14.73;7.20;;;;;;;;;;5020661;28;20886;-59
2023/10/01 08:53:09;;;;;;;15.02;7.70;;;;;;;;;;5019907;28;21023;-59
2023/10/01 08:58:25;;;;;;;14.15;7.80;;;;;;;;;;5015797;28;20437;-58
2023/10/01 09:01:12;;;;;;;15.52;7.95;;;;;;;;;;5021258;28;20407;-58
2023/10/01 09:03:38;;;;;;;15.40;8.13;;;;;;;;;;5018800;28;20412;-58
2023/10/01 09:06:03;;;;;;;16.05;8.60;;;;;;;;;;5014767;28;20864;-59
2023/10/01 09:08:33;;;;;;;15.10;8.00;;;;;;;;;;5024409;28;20897;-59
2023/10/01 09:11:01;;;;;;;14.63;8.00;;;;;;;;;;5017844;28;20417;-58
2023/10/01 09:13:30;;;;;;;14.00;7.50;;;;;;;;;;5015623;28;20410;-59
2023/10/01 09:15:57;;;;;;;14.60;7.75;;;;;;;;;;5024422;28;20398;-58
2023/10/01 09:18:23;;;;;;;15.75;8.02;;;;;;;;;;5014678;28;20416;-59
2023/10/01 09:21:06;;;;;;;14.77;8.52;;;;;;;;;;5017069;28;20436;-58
2023/10/01 09:23:56;;;;;;;15.23;8.30;;;;;;;;;;5023004;28;20414;-59
2023/10/01 09:26:39;;;;;;;15.45;8.50;;;;;;;;;;5015151;28;20423;-59
2023/10/01 09:29:13;;;;;;;13.52;7.40;;;;;;;;;;5016377;28;20416;-59
2023/10/01 09:31:52;;;;;;;15.07;7.63;;;;;;;;;;5017925;28;20421;-59
2023/10/01 09:34:31;;;;;;;13.80;8.10;;;;;;;;;;5001308;28;21014;-59
2023/10/01 09:36:56;;;;;;;13.80;7.78;;;;;;;;;;5001018;28;20510;-58
2023/10/01 09:39:32;;;;;;;14.10;7.82;;;;;;;;;;5002103;28;20393;-59
2023/10/01 09:41:57;;;;;;;15.75;7.82;;;;;;;;;;5013032;28;20448;-58
2023/10/01 09:44:22;;;;;;;14.33;7.63;;;;;;;;;;5008102;28;20391;-59
2023/10/01 09:46:48;;;;;;;14.50;8.13;;;;;;;;;;5018475;28;20407;-58
2023/10/01 09:49:13;;;;;;;13.68;7.75;;;;;;;;;;5008465;28;20609;-58
2023/10/01 09:51:41;;;;;;;14.15;7.20;;;;;;;;;;5009788;28;20407;-59
2023/10/01 09:54:08;;;;;;;13.97;7.67;;;;;;;;;;5005891;28;20489;-59
2023/10/01 09:56:46;;;;;;;13.20;7.50;;;;;;;;;;5010864;28;20419;-59
2023/10/01 09:59:12;;;;;;;15.40;7.00;;;;;;;;;;5001466;28;20439;-59
2023/10/01 10:01:37;;;;;;;14.88;7.60;;;;;;;;;;5003172;28;20518;-59
2023/10/01 10:04:04;;;;;;;15.77;7.00;;;;;;;;;;5004981;28;20407;-59
2023/10/01 10:06:31;;;;;;;13.35;6.90;;;;;;;;;;5010423;28;20414;-59
2023/10/01 10:09:03;;;;;;;13.02;6.90;;;;;;;;;;5009993;28;20420;-58
2023/10/01 10:11:37;;;;;;;13.03;7.00;;;;;;;;;;5007342;28;20972;-58
2023/10/01 10:14:24;;;;;;;12.70;6.60;;;;;;;;;;5016556;28;20819;-59
2023/10/01 10:16:56;;;;;;;12.25;6.78;;;;;;;;;;5007598;28;20780;-58
2023/10/01 10:19:21;;;;;;;11.53;6.30;;;;;;;;;;5005842;28;20811;-58
2023/10/01 10:24:28;;;;;;;14.20;7.00;;;;;;;;;;4999793;28;20423;-59
2023/10/01 10:27:07;;;;;;;12.07;6.80;;;;;;;;;;5007937;28;20895;-58
2023/10/01 10:29:57;;;;;;;11.95;6.40;;;;;;;;;;5011426;28;20902;-58
2023/10/01 10:32:24;;;;;;;12.90;6.82;;;;;;;;;;5011266;28;20420;-59
2023/10/01 10:35:14;;;;;;;12.98;6.80;;;;;;;;;;5013826;28;20405;-59
2023/10/01 10:37:44;;;;;;;12.93;6.68;;;;;;;;;;5020175;28;20874;-58
2023/10/01 10:42:46;;;;;;;13.40;7.00;;;;;;;;;;5017716;28;20737;-58
2023/10/01 10:45:21;;;;;;;12.13;6.50;;;;;;;;;;5013758;28;20422;-59
2023/10/01 10:48:01;;;;;;;12.75;6.68;;;;;;;;;;5016369;28;20428;-58
2023/10/01 10:50:44;;;;;;;13.48;6.80;;;;;;;;;;5016371;28;20420;-58
2023/10/01 10:53:15;;;;;;;13.30;6.40;;;;;;;;;;5013132;28;20419;-59
2023/10/01 10:55:50;;;;;;;13.70;6.30;;;;;;;;;;5014517;28;20419;-59
2023/10/01 10:58:15;;;;;;;12.25;6.47;;;;;;;;;;5019213;28;21029;-58
2023/10/01 11:00:40;;;;;;;12.23;6.70;;;;;;;;;;5019352;28;20405;-58
2023/10/01 11:03:10;;;;;;;13.83;6.20;;;;;;;;;;5014025;28;20803;-58
2023/10/01 11:05:49;;;;;;;12.55;6.47;;;;;;;;;;5021948;28;20399;-59
2023/10/01 11:08:25;;;;;;;11.70;6.43;;;;;;;;;;5016715;28;20415;-58
2023/10/01 11:10:51;;;;;;;12.60;6.32;;;;;;;;;;5015977;28;20882;-58
2023/10/01 11:13:27;;;;;;;13.90;6.93;;;;;;;;;;5021857;28;20422;-58
2023/10/01 11:15:52;;;;;;;13.00;6.95;;;;;;;;;;5014318;28;20397;-58
2023/10/01 11:18:23;;;;;;;13.20;6.90;;;;;;;;;;5016452;28;20409;-59
2023/10/01 11:21:00;;;;;;;12.90;6.78;;;;;;;;;;5021217;28;20545;-59
2023/10/01 11:23:26;;;;;;;13.30;6.78;;;;;;;;;;5023064;28;20392;-58
2023/10/01 11:25:51;;;;;;;13.00;6.90;;;;;;;;;;5017826;28;20918;-58
2023/10/01 11:28:17;;;;;;;11.60;6.23;;;;;;;;;;5018612;28;20522;-58
2023/10/01 11:30:42;;;;;;;13.10;6.40;;;;;;;;;;5032494;28;20448;-59
2023/10/01 11:33:14;;;;;;;13.02;6.47;;;;;;;;;;5018526;28;20521;-59
2023/10/01 11:35:41;;;;;;;13.10;7.03;;;;;;;;;;5020955;28;20397;-58
2023/10/01 11:38:07;;;;;;;13.73;6.85;;;;;;;;;;5032450;28;21155;-59
2023/10/01 11:43:27;;;;;;;14.05;6.88;;;;;;;;;;5021607;28;20403;-59
2023/10/01 11:46:18;;;;;;;13.30;6.53;;;;;;;;;;5019877;28;20409;-58
2023/10/01 11:48:56;;;;;;;11.95;6.13;;;;;;;;;;5023027;28;20754;-58
2023/10/01 11:51:38;;;;;;;12.68;6.13;;;;;;;;;;5016693;28;20409;-59
2023/10/01 11:54:09;;;;;;;12.00;6.60;;;;;;;;;;5023969;28;20435;-59
2023/10/01 11:56:35;;;;;;;11.75;6.43;;;;;;;;;;5021159;28;20396;-58
2023/10/01 11:59:00;;;;;;;10.95;5.80;;;;;;;;;;5023906;28;20408;-59
2023/10/01 12:01:38;;;;;;;11.63;6.23;;;;;;;;;;5015853;28;21617;-58
2023/10/01 12:04:04;;;;;;;11.10;5.77;;;;;;;;;;5024127;28;20407;-59
2023/10/01 12:06:34;;;;;;;13.43;6.07;;;;;;;;;;5020122;28;20405;-58
2023/10/01 12:08:59;;;;;;;11.65;5.63;;;;;;;;;;5016319;28;20462;-58
2023/10/01 12:11:31;;;;;;;12.33;5.60;;;;;;;;;;5024758;28;20415;-58
2023/10/01 12:14:05;;;;;;;10.90;5.75;;;;;;;;;;5021835;28;20463;-58
2023/10/01 12:16:31;;;;;;;13.25;6.10;;;;;;;;;;5020802;28;20391;-58
2023/10/01 12:21:40;;;;;;;11.02;5.50;;;;;;;;;;5016398;28;20752;-58
2023/10/01 12:24:12;;;;;;;11.40;5.70;;;;;;;;;;5017537;28;20415;-58
2023/10/01 12:26:38;;;;;;;12.80;5.95;;;;;;;;;;5017846;28;20475;-58
2023/10/01 12:29:13;;;;;;;9.85;5.40;;;;;;;;;;5024826;28;20413;-59
2023/10/01 12:31:45;;;;;;;11.30;5.47;;;;;;;;;;5023301;28;20475;-58
2023/10/01 12:34:11;;;;;;;10.75;5.75;;;;;;;;;;5018480;28;20411;-58
2023/10/01 12:36:44;;;;;;;11.38;5.28;;;;;;;;;;5015552;28;20482;-58
2023/10/01 12:44:27;;;;;;;10.27;5.30;;;;;;;;;;5020771;28;20950;-58
2023/10/01 12:46:54;;;;;;;10.80;5.72;;;;;;;;;;5025116;28;20419;-58
2023/10/01 12:49:20;;;;;;;12.60;5.97;;;;;;;;;;5024066;28;20449;-58
2023/10/01 12:51:54;;;;;;;10.90;5.57;;;;;;;;;;5017430;28;20822;-58
2023/10/01 12:54:24;;;;;;;12.17;5.47;;;;;;;;;;5016917;28;20458;-58
2023/10/01 12:57:02;;;;;;;10.65;5.45;;;;;;;;;;5024607;28;20407;-58
2023/10/01 12:59:38;;;;;;;10.30;5.37;;;;;;;;;;5015293;28;20776;-58
2023/10/01 13:02:03;;;;;;;10.93;5.32;;;;;;;;;;5017837;28;20410;-59
2023/10/01 13:04:32;;;;;;;11.43;5.22;;;;;;;;;;5015106;28;20766;-58
2023/10/01 13:07:03;;;;;;;10.45;5.55;;;;;;;;;;5026689;28;20458;-58
2023/10/01 13:09:53;;;;;;;10.52;5.25;;;;;;;;;;5028335;28;20407;-58
2023/10/01 13:12:19;;;;;;;11.23;5.45;;;;;;;;;;5022525;28;20411;-58
2023/10/01 13:14:44;;;;;;;11.43;5.57;;;;;;;;;;5020335;28;20412;-59
2023/10/01 13:17:19;;;;;;;13.10;5.90;;;;;;;;;;5015459;28;20500;-59
2023/10/01 13:19:48;;;;;;;10.63;5.00;;;;;;;;;;5023124;28;20472;-58
2023/10/01 13:22:13;;;;;;;9.73;5.28;;;;;;;;;;5018711;28;20772;-59
2023/10/01 13:24:38;;;;;;;11.55;5.20;;;;;;;;;;5022705;28;21341;-58
2023/10/01 13:27:10;;;;;;;10.93;5.60;;;;;;;;;;5014766;28;20407;-58
2023/10/01 13:29:38;;;;;;;10.87;5.37;;;;;;;;;;5028284;28;20397;-58
2023/10/01 13:32:03;;;;;;;10.38;5.22;;;;;;;;;;5021682;28;20508;-59
2023/10/01 13:34:48;;;;;;;12.00;5.50;;;;;;;;;;5022737;28;20802;-58
2023/10/01 13:37:42;;;;;;;11.80;5.38;;;;;;;;;;5023263;28;20420;-58
2023/10/01 14:10:15;;;;;;;11.15;5.88;;;;;;;;;;5017055;28;20420;-58
2023/10/01 14:12:41;;;;;;;11.80;5.10;;;;;;;;;;5015041;28;20400;-58
2023/10/01 14:15:20;;;;;;;10.05;5.43;;;;;;;;;;5022030;28;20407;-58
2023/10/01 14:17:52;;;;;;;11.60;5.63;;;;;;;;;;5016354;28;20400;-58
2023/10/01 14:20:37;;;;;;;11.60;5.50;;;;;;;;;;5016321;28;20410;-58
2023/10/01 14:23:03;;;;;;;10.75;5.60;;;;;;;;;;5013525;28;20434;-59
2023/10/01 14:25:29;;;;;;;10.33;5.47;;;;;;;;;;5022782;28;20465;-58
2023/10/01 14:27:59;;;;;;;10.40;5.80;;;;;;;;;;5016770;28;20416;-58
2023/10/01 14:30:24;;;;;;;10.48;5.47;;;;;;;;;;5015383;28;20423;-58
2023/10/01 14:32:58;;;;;;;11.17;5.80;;;;;;;;;;5014925;28;20868;-58
2023/10/01 14:35:37;;;;;;;11.40;5.93;;;;;;;;;;5022468;28;20464;-58
2023/10/01 14:38:05;;;;;;;11.80;6.28;;;;;;;;;;5016166;28;20916;-59
2023/10/01 14:40:31;;;;;;;10.55;6.10;;;;;;;;;;5015207;28;20407;-58
2023/10/01 14:43:03;;;;;;;10.60;6.00;;;;;;;;;;5025311;28;20422;-58
2023/10/01 14:45:34;;;;;;;11.75;6.20;;;;;;;;;;5013492;28;20577;-58
2023/10/01 14:48:06;;;;;;;11.83;6.07;;;;;;;;;;5011957;28;20807;-58
2023/10/01 14:50:39;;;;;;;11.73;5.80;;;;;;;;;;5010748;28;21185;-58
2023/10/01 14:53:04;;;;;;;11.70;5.78;;;;;;;;;;5007650;28;20434;-58
2023/10/01 14:55:39;;;;;;;11.88;6.00;;;;;;;;;;5003195;28;20396;-58
2023/10/01 14:58:12;;;;;;;11.85;6.20;;;;;;;;;;5001738;28;20757;-58
2023/10/01 15:00:49;;;;;;;12.93;6.53;;;;;;;;;;5004940;28;20407;-58
2023/10/01 15:03:14;;;;;;;11.20;5.93;;;;;;;;;;5009928;28;20418;-58
2023/10/01 15:05:40;;;;;;;14.20;6.80;;;;;;;;;;5013396;28;20409;-58
2023/10/01 15:08:05;;;;;;;10.83;6.17;;;;;;;;;;5012589;28;20484;-58
2023/10/01 15:10:30;;;;;;;10.70;6.20;;;;;;;;;;5011937;28;20525;-58
2023/10/01 15:12:56;;;;;;;11.13;6.40;;;;;;;;;;5010877;28;20452;-58
2023/10/01 15:15:21;;;;;;;10.73;6.55;;;;;;;;;;5013275;28;20468;-58
2023/10/01 15:17:46;;;;;;;13.27;6.80;;;;;;;;;;5007049;28;20397;-58
2023/10/01 15:20:27;;;;;;;12.20;6.73;;;;;;;;;;5003817;28;20405;-59
2023/10/01 15:22:55;;;;;;;12.65;6.70;;;;;;;;;;5004932;28;20465;-59
2023/10/01 15:25:21;;;;;;;12.47;6.63;;;;;;;;;;5008002;28;20509;-58
2023/10/01 15:27:47;;;;;;;12.68;6.70;;;;;;;;;;5011432;28;20489;-58
2023/10/01 15:30:21;;;;;;;14.38;7.10;;;;;;;;;;5012691;28;20416;-59
2023/10/01 15:32:55;;;;;;;13.85;7.25;;;;;;;;;;5007695;28;21269;-58
2023/10/01 15:35:22;;;;;;;12.88;7.15;;;;;;;;;;5009680;28;20409;-58
2023/10/01 15:37:48;;;;;;;11.57;6.87;;;;;;;;;;5011105;28;20419;-58
2023/10/01 15:40:25;;;;;;;13.03;7.13;;;;;;;;;;5007447;28;20922;-58
2023/10/01 15:42:54;;;;;;;13.90;7.43;;;;;;;;;;5003661;28;20620;-58
2023/10/01 15:45:19;;;;;;;13.07;7.65;;;;;;;;;;5002858;28;20405;-58
2023/10/01 15:47:46;;;;;;;13.60;7.17;;;;;;;;;;5006379;28;20889;-58
2023/10/01 15:50:12;;;;;;;15.93;7.72;;;;;;;;;;5010235;28;20420;-59
2023/10/01 15:52:46;;;;;;;12.52;7.40;;;;;;;;;;5010522;28;20430;-59
2023/10/01 15:55:16;;;;;;;14.13;7.70;;;;;;;;;;5009485;28;20418;-58